createdAt,value
2022-07-31T00:00:30.250Z,42.41
2022-07-31T00:02:58.751Z,42.57
2022-07-31T00:05:27.838Z,42.42
2022-07-31T00:07:56.383Z,42.41
2022-07-31T00:10:25.130Z,42.71
2022-07-31T00:12:55.014Z,42.92
2022-07-31T00:15:23.632Z,42.42
2022-07-31T00:17:52.690Z,42.72
2022-07-31T00:20:21.277Z,42.73
2022-07-31T00:22:50.599Z,42.85
2022-07-31T00:25:20.145Z,42.81
2022-07-31T00:27:48.575Z,42.89
2022-07-31T00:30:18.404Z,43.12
2022-07-31T00:32:48.970Z,43.43
2022-07-31T00:35:20.675Z,43.75
2022-07-31T00:37:49.443Z,43.82
2022-07-31T00:40:18.953Z,44.18
2022-07-31T00:42:47.354Z,44.03
2022-07-31T00:45:17.185Z,44.30
2022-07-31T00:47:50.594Z,44.22
2022-07-31T00:50:24.277Z,44.01
2022-07-31T00:52:52.641Z,43.81
2022-07-31T00:55:22.671Z,43.74
2022-07-31T00:57:51.051Z,43.83
2022-07-31T01:00:20.987Z,43.92
2022-07-31T01:02:49.405Z,43.80
2022-07-31T01:05:19.063Z,43.94
2022-07-31T01:07:48.904Z,43.90
2022-07-31T01:10:25.832Z,44.32
2022-07-31T01:12:57.991Z,44.20
2022-07-31T01:15:29.666Z,44.44
2022-07-31T01:17:59.662Z,44.50
2022-07-31T01:20:29.736Z,44.45
2022-07-31T01:23:18.960Z,44.09
2022-07-31T01:26:20.273Z,43.60
2022-07-31T01:29:15.558Z,44.40
2022-07-31T01:31:49.515Z,44.56
2022-07-31T01:34:25.838Z,44.76
2022-07-31T01:37:05.036Z,45.21
2022-07-31T01:39:37.155Z,45.22
2022-07-31T01:42:09.131Z,45.56
2022-07-31T01:44:45.535Z,46.11
2022-07-31T01:47:18.354Z,46.80
2022-07-31T01:49:49.336Z,47.28
2022-07-31T01:52:20.562Z,47.06
2022-07-31T01:54:50.673Z,47.89
2022-07-31T01:57:22.523Z,47.65
2022-07-31T02:00:01.152Z,47.78
2022-07-31T02:02:45.748Z,47.83
2022-07-31T02:05:17.629Z,47.86
2022-07-31T02:07:47.450Z,47.99
2022-07-31T02:10:17.844Z,47.75
2022-07-31T02:12:47.607Z,47.41
2022-07-31T02:15:20.431Z,47.24
2022-07-31T02:17:50.336Z,47.32
2022-07-31T02:20:26.031Z,47.40
2022-07-31T02:22:57.315Z,46.93
2022-07-31T02:25:27.151Z,47.12
2022-07-31T02:27:59.258Z,47.48
2022-07-31T02:30:39.404Z,47.79
2022-07-31T02:33:12.958Z,47.90
2022-07-31T02:35:45.570Z,48.27
2022-07-31T02:38:23.166Z,48.45
2022-07-31T02:41:00.475Z,48.86
2022-07-31T02:43:32.948Z,49.07
2022-07-31T02:46:10.187Z,49.31
2022-07-31T02:48:39.423Z,49.33
2022-07-31T02:51:11.361Z,49.27
2022-07-31T02:53:39.897Z,49.36
2022-07-31T02:56:11.287Z,50.17
2022-07-31T02:58:42.852Z,50.32
2022-07-31T03:01:21.302Z,50.39
2022-07-31T03:03:50.208Z,50.25
2022-07-31T03:06:19.949Z,50.50
2022-07-31T03:08:48.402Z,50.64
2022-07-31T03:11:20.988Z,50.73
2022-07-31T03:13:51.098Z,51.38
2022-07-31T03:16:22.440Z,51.30
2022-07-31T03:18:51.563Z,51.75
2022-07-31T03:21:21.137Z,52.08
2022-07-31T03:23:50.682Z,52.28
2022-07-31T03:26:22.675Z,52.18
2022-07-31T03:28:51.132Z,52.36
2022-07-31T03:31:21.341Z,53.04
2022-07-31T03:33:49.853Z,52.68
2022-07-31T03:36:18.679Z,52.79
2022-07-31T03:38:50.449Z,52.59
2022-07-31T03:41:38.558Z,52.40
2022-07-31T03:44:07.555Z,52.72
2022-07-31T03:46:37.455Z,52.68
2022-07-31T03:49:06.343Z,52.97
2022-07-31T03:51:35.759Z,52.58
2022-07-31T03:54:04.673Z,52.32
2022-07-31T03:56:58.641Z,52.52
2022-07-31T03:59:29.838Z,52.50
2022-07-31T04:02:07.991Z,52.48
2022-07-31T04:04:45.086Z,52.80
2022-07-31T04:07:13.509Z,52.18
2022-07-31T04:09:42.721Z,52.23
2022-07-31T04:12:12.734Z,52.13
2022-07-31T04:14:41.944Z,52.67
2022-07-31T04:17:11.800Z,52.97
2022-07-31T04:19:40.275Z,53.12
2022-07-31T04:22:09.489Z,53.14
2022-07-31T04:24:39.437Z,53.31
2022-07-31T04:27:29.142Z,53.73
2022-07-31T04:29:58.293Z,54.12
2022-07-31T04:32:28.085Z,54.13
2022-07-31T04:35:02.928Z,54.77
2022-07-31T04:37:32.077Z,54.65
2022-07-31T04:40:00.879Z,54.68
2022-07-31T04:42:32.865Z,54.50
2022-07-31T04:45:01.768Z,54.36
2022-07-31T04:47:31.636Z,54.08
2022-07-31T04:50:00.207Z,54.34
2022-07-31T04:52:28.693Z,54.79
2022-07-31T04:55:03.379Z,54.29
2022-07-31T04:57:31.837Z,54.96
2022-07-31T05:00:01.395Z,55.12
2022-07-31T05:02:34.975Z,55.20
2022-07-31T05:05:03.945Z,54.31
2022-07-31T05:07:35.468Z,53.67
2022-07-31T05:10:30.523Z,53.54
2022-07-31T05:12:59.052Z,54.00
2022-07-31T05:15:27.508Z,53.74
2022-07-31T05:17:59.354Z,54.02
2022-07-31T05:20:46.608Z,54.35
2022-07-31T05:23:46.304Z,54.34
2022-07-31T05:26:22.403Z,54.58
2022-07-31T05:28:57.879Z,54.41
2022-07-31T05:31:27.918Z,54.75
2022-07-31T05:33:59.540Z,54.62
2022-07-31T05:36:28.233Z,54.46
2022-07-31T05:38:56.758Z,54.41
2022-07-31T05:41:45.205Z,54.67
2022-07-31T05:44:25.690Z,54.14
2022-07-31T05:49:26.803Z,54.72
2022-07-31T05:51:56.616Z,54.55
2022-07-31T05:54:25.219Z,54.65
2022-07-31T05:57:12.126Z,54.28
2022-07-31T06:00:03.799Z,54.37
2022-07-31T06:02:40.701Z,54.57
2022-07-31T06:05:36.652Z,55.31
2022-07-31T06:08:05.577Z,55.31
2022-07-31T06:10:41.839Z,55.63
2022-07-31T06:13:10.471Z,55.49
2022-07-31T06:15:39.302Z,56.14
2022-07-31T06:18:14.950Z,55.96
2022-07-31T06:20:44.961Z,54.84
2022-07-31T06:23:19.822Z,54.78
2022-07-31T06:25:59.556Z,54.46
2022-07-31T06:28:33.804Z,54.43
2022-07-31T06:31:20.623Z,54.30
2022-07-31T06:33:50.820Z,54.44
2022-07-31T06:36:24.285Z,54.30
2022-07-31T06:38:59.411Z,53.96
2022-07-31T06:41:47.417Z,53.07
2022-07-31T06:44:46.130Z,52.85
2022-07-31T06:47:33.648Z,52.74
2022-07-31T06:50:12.828Z,52.00
2022-07-31T06:52:49.691Z,51.49
2022-07-31T06:55:18.168Z,51.06
2022-07-31T06:57:46.701Z,50.96
2022-07-31T07:00:20.257Z,50.66
2022-07-31T07:02:49.730Z,49.82
2022-07-31T07:05:18.665Z,48.96
2022-07-31T07:07:52.262Z,48.85
2022-07-31T07:10:20.829Z,48.58
2022-07-31T07:13:12.286Z,47.93
2022-07-31T07:15:42.434Z,47.95
2022-07-31T07:18:11.803Z,47.55
2022-07-31T07:20:48.425Z,47.67
2022-07-31T07:23:18.502Z,48.36
2022-07-31T07:26:10.150Z,47.43
2022-07-31T07:28:39.635Z,47.37
2022-07-31T07:31:11.074Z,47.29
2022-07-31T07:33:42.526Z,47.12
2022-07-31T07:36:24.832Z,47.58
2022-07-31T07:39:05.439Z,47.55
2022-07-31T07:41:35.617Z,47.73
2022-07-31T07:44:04.173Z,47.78
2022-07-31T07:46:32.744Z,47.48
2022-07-31T07:49:06.773Z,47.04
2022-07-31T07:51:59.398Z,46.59
2022-07-31T07:54:36.172Z,46.81
2022-07-31T07:57:23.435Z,46.31
2022-07-31T08:00:10.914Z,45.96
2022-07-31T08:03:46.840Z,45.26
2022-07-31T08:05:38.763Z,45.17
2022-07-31T08:08:07.281Z,45.20
2022-07-31T08:10:52.030Z,46.06
2022-07-31T08:13:27.943Z,46.03
2022-07-31T08:16:15.265Z,46.66
2022-07-31T08:18:46.372Z,46.86
2022-07-31T08:21:15.058Z,47.18
2022-07-31T08:23:43.541Z,46.73
2022-07-31T08:26:13.921Z,47.42
2022-07-31T08:28:50.818Z,46.56
2022-07-31T08:31:23.806Z,46.34
2022-07-31T08:34:30.793Z,46.55
2022-07-31T08:37:50.935Z,46.46
2022-07-31T08:39:52.067Z,46.59
2022-07-31T08:42:21.998Z,46.10
2022-07-31T08:44:50.481Z,44.42
2022-07-31T08:47:23.607Z,40.17
2022-07-31T08:49:53.953Z,36.35
2022-07-31T08:52:26.179Z,35.22
2022-07-31T08:55:08.471Z,35.17
2022-07-31T08:57:38.428Z,35.02
2022-07-31T09:00:09.018Z,34.10
2022-07-31T09:02:39.460Z,33.97
2022-07-31T09:05:42.279Z,35.32
2022-07-31T09:08:14.965Z,34.77
2022-07-31T09:10:50.041Z,34.02
2022-07-31T09:13:21.440Z,35.87
2022-07-31T09:15:52.695Z,35.78
2022-07-31T09:18:25.158Z,37.33
2022-07-31T09:21:09.381Z,33.83
2022-07-31T09:23:47.388Z,33.75
2022-07-31T09:26:16.710Z,35.72
2022-07-31T09:28:49.218Z,35.57
2022-07-31T09:31:17.738Z,33.95
2022-07-31T09:34:09.331Z,33.35
2022-07-31T09:36:40.798Z,32.86
2022-07-31T09:39:27.805Z,32.91
2022-07-31T09:42:20.508Z,33.22
2022-07-31T09:44:56.016Z,34.28
2022-07-31T09:47:28.971Z,35.17
2022-07-31T09:50:02.119Z,35.07
2022-07-31T09:52:33.638Z,35.48
2022-07-31T09:55:15.815Z,33.57
2022-07-31T09:57:55.175Z,35.37
2022-07-31T10:00:26.754Z,33.90
2022-07-31T10:02:57.427Z,34.34
2022-07-31T10:05:29.054Z,33.71
2022-07-31T10:08:02.088Z,35.24
2022-07-31T10:10:53.789Z,35.03
2022-07-31T10:13:26.327Z,34.03
2022-07-31T10:16:01.067Z,34.90
2022-07-31T10:18:52.086Z,35.19
2022-07-31T10:22:02.910Z,34.70
2022-07-31T10:24:45.407Z,35.56
2022-07-31T10:27:16.224Z,35.51
2022-07-31T10:29:45.966Z,34.91
2022-07-31T10:32:15.966Z,35.18
2022-07-31T10:35:07.511Z,35.63
2022-07-31T10:38:13.815Z,36.90
2022-07-31T10:41:12.959Z,36.24
2022-07-31T10:43:48.042Z,34.36
2022-07-31T10:46:34.668Z,36.10
2022-07-31T10:49:40.897Z,34.98
2022-07-31T10:52:34.634Z,35.16
2022-07-31T10:55:21.934Z,36.55
2022-07-31T10:58:10.648Z,36.06
2022-07-31T11:01:07.034Z,34.74
2022-07-31T11:04:00.852Z,34.52
2022-07-31T11:06:44.509Z,35.36
2022-07-31T11:09:51.388Z,33.49
2022-07-31T11:13:01.564Z,35.64
2022-07-31T11:15:47.271Z,34.02
2022-07-31T11:18:34.859Z,35.41
2022-07-31T11:21:35.959Z,37.12
2022-07-31T11:24:02.941Z,37.79
2022-07-31T11:26:41.641Z,35.22
2022-07-31T11:29:58.627Z,35.95
2022-07-31T11:32:15.341Z,36.28
2022-07-31T11:34:49.066Z,34.96
2022-07-31T11:37:20.545Z,34.72
2022-07-31T11:39:52.820Z,34.02
2022-07-31T11:42:26.430Z,33.74
2022-07-31T11:45:11.134Z,32.56
2022-07-31T11:48:11.406Z,32.86
2022-07-31T11:50:32.352Z,33.21
2022-07-31T11:53:07.106Z,32.75
2022-07-31T11:55:50.096Z,32.35
2022-07-31T11:58:21.209Z,34.12
2022-07-31T12:00:52.457Z,32.23
2022-07-31T12:03:23.367Z,33.88
2022-07-31T12:05:54.039Z,31.98
2022-07-31T12:08:24.213Z,32.96
2022-07-31T12:10:56.372Z,32.43
2022-07-31T12:13:26.468Z,32.75
2022-07-31T12:15:57.248Z,33.56
2022-07-31T12:18:27.132Z,33.03
2022-07-31T12:20:58.167Z,32.99
2022-07-31T12:23:40.201Z,35.38
2022-07-31T12:26:14.043Z,35.20
2022-07-31T12:28:43.751Z,32.46
2022-07-31T12:31:12.220Z,32.04
2022-07-31T12:33:45.588Z,32.00
2022-07-31T12:36:16.294Z,31.97
2022-07-31T12:38:49.131Z,32.51
2022-07-31T12:41:19.185Z,33.46
2022-07-31T12:43:51.557Z,34.16
2022-07-31T12:46:22.868Z,35.16
2022-07-31T12:48:52.068Z,35.55
2022-07-31T12:51:45.284Z,35.52
2022-07-31T12:54:10.155Z,35.97
2022-07-31T12:56:41.362Z,33.61
2022-07-31T12:59:10.563Z,32.58
2022-07-31T13:01:39.224Z,32.52
2022-07-31T13:04:18.651Z,33.86
2022-07-31T13:06:52.085Z,35.01
2022-07-31T13:09:21.156Z,32.07
2022-07-31T13:11:57.364Z,33.23
2022-07-31T13:14:26.315Z,31.58
2022-07-31T13:16:56.195Z,31.15
2022-07-31T13:19:24.853Z,34.53
2022-07-31T13:21:56.875Z,32.51
2022-07-31T13:24:25.741Z,34.68
2022-07-31T13:26:58.716Z,34.83
2022-07-31T13:29:27.240Z,33.55
2022-07-31T13:31:56.109Z,36.13
2022-07-31T13:34:24.564Z,34.68
2022-07-31T13:36:52.966Z,36.45
2022-07-31T13:39:21.387Z,32.50
2022-07-31T13:41:49.875Z,35.50
2022-07-31T13:44:20.042Z,36.35
2022-07-31T13:46:48.495Z,36.11
2022-07-31T13:49:17.036Z,34.28
2022-07-31T13:51:45.634Z,35.06
2022-07-31T13:54:14.432Z,34.22
2022-07-31T13:56:43.769Z,33.47
2022-07-31T13:59:13.958Z,35.44
2022-07-31T14:02:03.822Z,34.39
2022-07-31T14:04:38.192Z,33.63
2022-07-31T14:07:09.269Z,33.76
2022-07-31T14:09:38.053Z,33.37
2022-07-31T14:12:07.733Z,32.93
2022-07-31T14:14:38.080Z,33.32
2022-07-31T14:17:07.865Z,34.34
2022-07-31T14:19:43.739Z,32.80
2022-07-31T14:22:14.419Z,33.09
2022-07-31T14:24:49.402Z,34.58
2022-07-31T14:27:21.189Z,34.58
2022-07-31T14:29:49.801Z,35.12
2022-07-31T14:32:21.930Z,34.76
2022-07-31T14:34:50.897Z,34.60
2022-07-31T14:37:20.592Z,34.10
2022-07-31T14:39:49.150Z,33.21
2022-07-31T14:42:22.478Z,32.37
2022-07-31T14:44:54.511Z,32.55
2022-07-31T14:47:24.379Z,34.01
2022-07-31T14:50:06.582Z,33.42
2022-07-31T14:52:36.912Z,33.36
2022-07-31T14:55:06.113Z,32.90
2022-07-31T14:57:34.950Z,33.89
2022-07-31T15:00:03.462Z,35.39
2022-07-31T15:02:33.278Z,35.98
2022-07-31T15:06:40.035Z,35.43
2022-07-31T15:07:50.382Z,33.95
2022-07-31T15:10:19.061Z,32.74
2022-07-31T15:12:47.511Z,35.97
2022-07-31T15:15:15.853Z,36.18
2022-07-31T15:17:45.561Z,33.50
2022-07-31T15:20:14.743Z,32.53
2022-07-31T15:22:43.165Z,34.18
2022-07-31T15:25:12.568Z,35.42
2022-07-31T15:27:41.059Z,35.56
2022-07-31T15:30:11.099Z,34.25
2022-07-31T15:32:41.017Z,32.80
2022-07-31T15:35:13.807Z,34.41
2022-07-31T15:37:45.437Z,34.71
2022-07-31T15:40:16.964Z,34.36
2022-07-31T15:42:46.890Z,33.84
2022-07-31T15:45:17.418Z,34.75
2022-07-31T15:47:47.371Z,33.68
2022-07-31T15:50:20.236Z,33.03
2022-07-31T15:52:49.568Z,34.07
2022-07-31T15:55:19.099Z,36.08
2022-07-31T15:57:47.821Z,35.78
2022-07-31T16:00:17.303Z,35.51
2022-07-31T16:02:45.871Z,36.77
2022-07-31T16:05:36.162Z,36.88
2022-07-31T16:08:29.640Z,33.97
2022-07-31T16:10:55.102Z,35.12
2022-07-31T16:13:24.790Z,37.53
2022-07-31T16:15:54.785Z,34.60
2022-07-31T16:18:23.201Z,36.33
2022-07-31T16:20:53.040Z,37.03
2022-07-31T16:23:21.511Z,34.61
2022-07-31T16:25:49.969Z,35.63
2022-07-31T16:28:18.568Z,36.73
2022-07-31T16:30:47.181Z,37.23
2022-07-31T16:33:15.747Z,37.68
2022-07-31T16:35:47.030Z,36.87
2022-07-31T16:38:16.851Z,34.61
2022-07-31T16:40:45.354Z,37.01
2022-07-31T16:43:48.295Z,34.12
2022-07-31T16:46:02.095Z,35.31
2022-07-31T16:48:31.210Z,36.31
2022-07-31T16:50:59.622Z,36.80
2022-07-31T16:54:11.609Z,35.37
2022-07-31T16:56:19.509Z,36.79
2022-07-31T16:58:52.603Z,38.06
2022-07-31T17:01:58.451Z,36.81
2022-07-31T17:04:11.462Z,37.04
2022-07-31T17:06:39.841Z,37.26
2022-07-31T17:09:16.740Z,36.31
2022-07-31T17:11:49.140Z,35.42
2022-07-31T17:14:18.630Z,36.73
2022-07-31T17:16:49.467Z,38.31
2022-07-31T17:19:43.028Z,37.14
2022-07-31T17:22:11.133Z,36.10
2022-07-31T17:24:41.586Z,35.12
2022-07-31T17:27:10.760Z,37.17
2022-07-31T17:29:39.908Z,36.64
2022-07-31T17:32:11.173Z,35.90
2022-07-31T17:34:40.660Z,35.67
2022-07-31T17:37:09.648Z,35.72
2022-07-31T17:39:38.414Z,37.11
2022-07-31T17:42:09.527Z,36.00
2022-07-31T17:44:38.273Z,36.33
2022-07-31T17:47:09.284Z,36.74
2022-07-31T17:49:38.144Z,37.11
2022-07-31T17:52:07.315Z,36.81
2022-07-31T17:54:35.780Z,36.92
2022-07-31T17:57:05.609Z,37.21
2022-07-31T17:59:35.454Z,36.82
2022-07-31T18:02:04.721Z,38.58
2022-07-31T18:04:36.998Z,36.87
2022-07-31T18:07:07.223Z,36.84
2022-07-31T18:09:36.656Z,36.58
2022-07-31T18:12:06.685Z,38.17
2022-07-31T18:14:37.384Z,38.49
2022-07-31T18:17:06.504Z,37.36
2022-07-31T18:19:35.008Z,37.26
2022-07-31T18:22:03.706Z,39.11
2022-07-31T18:24:32.261Z,38.68
2022-07-31T18:27:00.660Z,37.96
2022-07-31T18:29:29.191Z,38.53
2022-07-31T18:31:58.962Z,38.08
2022-07-31T18:34:27.386Z,38.15
2022-07-31T18:36:55.755Z,38.36
2022-07-31T18:39:24.779Z,39.20
2022-07-31T18:41:53.275Z,39.12
2022-07-31T18:44:22.230Z,39.00
2022-07-31T18:46:50.791Z,39.50
2022-07-31T18:50:58.777Z,39.51
2022-07-31T18:52:10.177Z,39.65
2022-07-31T18:54:39.315Z,39.37
2022-07-31T18:57:08.071Z,39.64
2022-07-31T18:59:36.923Z,39.90
2022-07-31T19:02:06.412Z,40.42
2022-07-31T19:04:41.171Z,40.38
2022-07-31T19:07:10.182Z,40.97
2022-07-31T19:09:39.003Z,41.66
2022-07-31T19:12:08.946Z,41.16
2022-07-31T19:14:38.481Z,41.52
2022-07-31T19:17:07.649Z,42.04
2022-07-31T19:19:52.508Z,40.92
2022-07-31T19:22:25.142Z,40.70
2022-07-31T19:24:54.013Z,41.26
2022-07-31T19:27:22.472Z,42.46
2022-07-31T19:30:13.786Z,41.89
2022-07-31T19:32:42.573Z,41.80
2022-07-31T19:35:11.667Z,42.64
2022-07-31T19:37:41.515Z,42.89
2022-07-31T19:40:11.637Z,43.23
2022-07-31T19:42:40.564Z,42.97
2022-07-31T19:45:09.846Z,42.79
2022-07-31T19:47:38.315Z,43.88
2022-07-31T19:50:08.704Z,43.51
2022-07-31T19:52:37.084Z,43.94
2022-07-31T19:55:09.036Z,43.33
2022-07-31T19:57:37.952Z,44.45
2022-07-31T20:00:09.078Z,44.16
2022-07-31T20:02:38.039Z,44.01
2022-07-31T20:05:08.766Z,44.03
2022-07-31T20:07:38.588Z,44.37
2022-07-31T20:10:10.987Z,44.01
2022-07-31T20:12:40.077Z,44.98
2022-07-31T20:15:10.240Z,44.56
2022-07-31T20:17:39.569Z,44.94
2022-07-31T20:20:15.648Z,45.64
2022-07-31T20:22:44.642Z,45.22
2022-07-31T20:25:19.822Z,45.71
2022-07-31T20:27:50.153Z,45.92
2022-07-31T20:30:21.843Z,46.14
2022-07-31T20:32:51.504Z,46.56
2022-07-31T20:35:45.583Z,46.59
2022-07-31T20:38:15.873Z,46.63
2022-07-31T20:40:54.470Z,46.54
2022-07-31T20:43:24.950Z,46.80
2022-07-31T20:45:53.908Z,46.75
2022-07-31T20:48:24.600Z,47.25
2022-07-31T20:50:53.605Z,46.98
2022-07-31T20:53:23.100Z,47.14
2022-07-31T20:55:52.853Z,47.70
2022-07-31T20:58:23.384Z,47.29
2022-07-31T21:00:53.721Z,47.72
2022-07-31T21:03:22.636Z,47.75
2022-07-31T21:05:51.572Z,48.02
2022-07-31T21:08:20.042Z,48.17
2022-07-31T21:10:48.481Z,48.56
2022-07-31T21:13:18.593Z,47.74
2022-07-31T21:15:47.166Z,48.45
2022-07-31T21:18:17.695Z,48.28
2022-07-31T21:20:50.779Z,48.32
2022-07-31T21:23:23.326Z,48.16
2022-07-31T21:25:52.419Z,48.20
2022-07-31T21:28:23.302Z,48.50
2022-07-31T21:30:53.569Z,48.77
2022-07-31T21:33:22.767Z,48.71
2022-07-31T21:35:51.625Z,48.80
2022-07-31T21:38:21.027Z,48.55
2022-07-31T21:40:50.288Z,48.14
2022-07-31T21:43:22.610Z,48.36
2022-07-31T21:45:57.502Z,48.48
2022-07-31T21:48:31.881Z,48.09
2022-07-31T21:51:01.647Z,48.31
2022-07-31T21:53:30.069Z,48.93
2022-07-31T21:56:00.458Z,48.51
2022-07-31T21:58:28.829Z,48.60
2022-07-31T22:00:58.701Z,48.89
2022-07-31T22:03:27.132Z,48.85
2022-07-31T22:06:12.192Z,48.88
2022-07-31T22:08:40.604Z,48.92
2022-07-31T22:11:09.141Z,48.80
2022-07-31T22:13:37.595Z,48.87
2022-07-31T22:16:07.895Z,49.48
2022-07-31T22:18:37.103Z,49.12
2022-07-31T22:21:08.970Z,49.08
2022-07-31T22:23:37.906Z,49.23
2022-07-31T22:26:06.843Z,49.37
2022-07-31T22:28:35.882Z,49.97
2022-07-31T22:31:06.587Z,49.46
2022-07-31T22:33:35.234Z,49.62
2022-07-31T22:36:07.125Z,50.13
2022-07-31T22:38:37.928Z,50.72
2022-07-31T22:41:06.622Z,50.03
2022-07-31T22:44:12.994Z,50.32
2022-07-31T22:46:25.300Z,50.59
2022-07-31T22:48:56.105Z,50.69
2022-07-31T22:51:25.089Z,50.97
2022-07-31T22:53:53.657Z,51.21
2022-07-31T22:56:29.542Z,51.13
2022-07-31T22:58:58.065Z,51.49
2022-07-31T23:01:27.936Z,51.26
2022-07-31T23:03:56.414Z,51.46
2022-07-31T23:06:30.698Z,51.88
2022-07-31T23:09:01.676Z,51.77
2022-07-31T23:11:30.390Z,51.75
2022-07-31T23:13:58.953Z,52.18
2022-07-31T23:16:28.802Z,52.05
2022-07-31T23:18:57.322Z,52.33
2022-07-31T23:21:25.914Z,52.86
2022-07-31T23:23:54.613Z,52.96
2022-07-31T23:26:26.053Z,52.80
2022-07-31T23:28:56.064Z,52.72
2022-07-31T23:31:24.975Z,53.32
2022-07-31T23:33:55.580Z,53.37
2022-07-31T23:36:24.175Z,53.40
2022-07-31T23:38:53.411Z,53.57
2022-07-31T23:41:42.556Z,54.04
2022-07-31T23:44:10.990Z,53.79
2022-07-31T23:46:40.354Z,53.79
2022-07-31T23:49:10.625Z,54.03
2022-07-31T23:51:39.107Z,54.20
2022-07-31T23:54:08.041Z,54.20
2022-07-31T23:56:36.478Z,54.39
2022-07-31T23:59:05.079Z,54.73
